Time,TemperatureF,DewpointF,PressureIn,WindDirection,WindDirectionDegrees,WindSpeedMPH,WindSpeedGustMPH,Humidity,HourlyPrecipIn,Conditions,Clouds,dailyrainin,SoftwareType,DateUTC
2013-02-15 00:00:00,30.1,26.7,29.99,NW,305,0.0,0.0,87,0.00,,CLR,0.00,VWS V13.01,2013-02-15 05:00:00,
2013-02-15 00:01:00,30.0,26.9,29.99,NW,305,0.0,0.0,88,0.00,,CLR,0.00,VWS V13.01,2013-02-15 05:01:00,
2013-02-15 00:06:00,30.0,26.9,29.99,NW,305,0.0,0.0,88,0.00,,CLR,0.00,VWS V13.01,2013-02-15 05:06:00,
2013-02-15 00:11:00,29.8,26.7,29.99,NW,305,0.0,0.0,88,0.00,,CLR,0.00,VWS V13.01,2013-02-15 05:11:00,
2013-02-15 00:16:00,29.7,26.6,29.99,NW,305,0.0,0.0,88,0.00,,CLR,0.00,VWS V13.01,2013-02-15 05:16:00,
2013-02-15 00:21:00,29.7,26.6,29.99,NW,305,0.0,0.0,88,0.00,,CLR,0.00,VWS V13.01,2013-02-15 05:21:00,
2013-02-15 00:26:00,29.8,26.7,29.99,NW,305,0.0,0.0,88,0.00,,CLR,0.00,VWS V13.01,2013-02-15 05:26:00,
2013-02-15 00:31:00,29.7,26.6,29.99,NW,305,0.0,0.0,88,0.00,,CLR,0.00,VWS V13.01,2013-02-15 05:31:00,
2013-02-15 00:36:00,29.4,26.3,29.98,NW,305,0.0,1.0,88,0.00,,CLR,0.00,VWS V13.01,2013-02-15 05:36:00,
2013-02-15 00:41:00,29.1,26.3,29.99,NW,305,0.0,1.0,89,0.00,,CLR,0.00,VWS V13.01,2013-02-15 05:41:00,
2013-02-15 00:46:00,29.1,26.3,29.99,NW,305,0.0,0.0,89,0.00,,CLR,0.00,VWS V13.01,2013-02-15 05:46:00,
2013-02-15 00:51:00,29.0,26.2,29.98,NW,305,0.0,0.0,89,0.00,,CLR,0.00,VWS V13.01,2013-02-15 05:51:00,
2013-02-15 00:56:00,29.0,26.4,29.98,NW,305,0.0,0.0,90,0.00,,CLR,0.00,VWS V13.01,2013-02-15 05:56:00,
2013-02-15 01:01:00,28.9,26.3,29.98,NW,305,0.0,0.0,90,0.00,,CLR,0.00,VWS V13.01,2013-02-15 06:01:00,
2013-02-15 01:06:00,28.9,26.3,29.98,NW,305,0.0,0.0,90,0.00,,CLR,0.00,VWS V13.01,2013-02-15 06:06:00,
2013-02-15 01:12:00,29.2,26.6,29.98,NW,305,0.0,0.0,90,0.00,,CLR,0.00,VWS V13.01,2013-02-15 06:12:00,
2013-02-15 01:17:00,29.3,26.7,29.98,NW,305,0.0,2.0,90,0.00,,CLR,0.00,VWS V13.01,2013-02-15 06:17:00,
2013-02-15 01:22:00,29.2,26.6,29.98,NW,305,0.0,2.0,90,0.00,,CLR,0.00,VWS V13.01,2013-02-15 06:22:00,
2013-02-15 01:27:00,29.4,26.8,29.98,NW,305,0.0,0.0,90,0.00,,CLR,0.00,VWS V13.01,2013-02-15 06:27:00,
2013-02-15 01:32:00,29.4,26.8,29.98,NW,305,0.0,0.0,90,0.00,,CLR,0.00,VWS V13.01,2013-02-15 06:32:00,
2013-02-15 01:37:00,29.6,27.0,29.98,NW,305,0.0,0.0,90,0.00,,CLR,0.00,VWS V13.01,2013-02-15 06:37:00,
2013-02-15 01:42:00,29.7,26.9,29.98,NW,305,0.0,0.0,89,0.00,,CLR,0.00,VWS V13.01,2013-02-15 06:42:00,
2013-02-15 01:47:00,29.9,27.1,29.98,NW,305,0.0,0.0,89,0.00,,CLR,0.00,VWS V13.01,2013-02-15 06:47:00,
2013-02-15 01:52:00,30.1,27.3,29.98,NW,305,0.0,0.0,89,0.00,,CLR,0.00,VWS V13.01,2013-02-15 06:52:00,
2013-02-15 01:57:00,30.2,27.4,29.98,NW,305,0.0,0.0,89,0.00,,CLR,0.00,VWS V13.01,2013-02-15 06:57:00,
2013-02-15 02:03:00,30.3,27.2,29.98,NW,305,0.0,0.0,88,0.00,,CLR,0.00,VWS V13.01,2013-02-15 07:03:00,
2013-02-15 02:08:00,30.3,27.2,29.97,NW,305,0.0,0.0,88,0.00,,CLR,0.00,VWS V13.01,2013-02-15 07:08:00,
2013-02-15 02:13:00,30.5,27.4,29.98,NW,305,0.0,0.0,88,0.00,,CLR,0.00,VWS V13.01,2013-02-15 07:13:00,
2013-02-15 02:18:00,30.5,27.4,29.98,NW,305,0.0,1.0,88,0.00,,CLR,0.00,VWS V13.01,2013-02-15 07:18:00,
2013-02-15 02:23:00,30.5,27.4,29.98,NW,305,0.0,1.0,88,0.00,,CLR,0.00,VWS V13.01,2013-02-15 07:23:00,
2013-02-15 02:28:00,30.6,27.2,29.98,NW,305,0.0,0.0,87,0.00,,CLR,0.00,VWS V13.01,2013-02-15 07:28:00,
2013-02-15 02:33:00,30.6,27.2,29.98,NW,305,0.0,0.0,87,0.00,,CLR,0.00,VWS V13.01,2013-02-15 07:33:00,
2013-02-15 02:38:00,30.4,27.0,29.98,NW,305,0.0,0.0,87,0.00,,CLR,0.00,VWS V13.01,2013-02-15 07:38:00,
2013-02-15 02:43:00,30.2,26.8,29.98,NW,305,0.0,0.0,87,0.00,,CLR,0.00,VWS V13.01,2013-02-15 07:43:00,
2013-02-15 02:49:00,30.1,27.0,29.98,NW,305,0.0,0.0,88,0.00,,CLR,0.00,VWS V13.01,2013-02-15 07:49:00,
2013-02-15 02:54:00,30.2,27.1,29.98,NW,305,0.0,2.0,88,0.00,,CLR,0.00,VWS V13.01,2013-02-15 07:54:00,
2013-02-15 02:59:00,30.1,27.0,29.99,SW,226,3.0,3.0,88,0.00,,CLR,0.00,VWS V13.01,2013-02-15 07:59:00,
2013-02-15 03:04:00,30.2,27.1,29.99,SW,226,1.0,3.0,88,0.00,,CLR,0.00,VWS V13.01,2013-02-15 08:04:00,
2013-02-15 03:09:00,30.6,27.5,29.99,SW,226,0.0,3.0,88,0.00,,CLR,0.00,VWS V13.01,2013-02-15 08:09:00,
2013-02-15 03:14:00,31.3,27.9,29.99,WNW,284,0.0,3.0,87,0.00,,CLR,0.00,VWS V13.01,2013-02-15 08:14:00,
2013-02-15 03:20:00,31.4,27.7,29.99,WNW,284,0.0,3.0,86,0.00,,CLR,0.00,VWS V13.01,2013-02-15 08:20:00,
2013-02-15 03:25:00,31.2,27.5,29.99,WNW,284,0.0,3.0,86,0.00,,CLR,0.00,VWS V13.01,2013-02-15 08:25:00,
2013-02-15 03:30:00,30.9,27.2,29.99,WNW,284,0.0,0.0,86,0.00,,CLR,0.00,VWS V13.01,2013-02-15 08:30:00,
2013-02-15 03:35:00,30.7,27.0,29.99,WNW,284,0.0,0.0,86,0.00,,CLR,0.00,VWS V13.01,2013-02-15 08:35:00,
2013-02-15 03:40:00,30.7,27.3,29.99,WNW,284,0.0,0.0,87,0.00,,CLR,0.00,VWS V13.01,2013-02-15 08:40:00,
2013-02-15 03:45:00,30.7,27.3,29.99,WNW,284,0.0,0.0,87,0.00,,CLR,0.00,VWS V13.01,2013-02-15 08:45:00,
2013-02-15 03:50:00,30.7,27.3,29.99,WNW,284,0.0,0.0,87,0.00,,CLR,0.00,VWS V13.01,2013-02-15 08:50:00,
2013-02-15 03:55:00,31.0,27.9,29.99,WNW,284,0.0,0.0,88,0.00,,CLR,0.00,VWS V13.01,2013-02-15 08:55:00,
2013-02-15 04:00:00,31.5,28.4,29.99,WNW,282,1.0,3.0,88,0.00,,CLR,0.00,VWS V13.01,2013-02-15 09:00:00,
2013-02-15 04:05:00,31.9,28.5,29.99,WNW,282,0.0,3.0,87,0.00,,CLR,0.00,VWS V13.01,2013-02-15 09:05:00,
2013-02-15 04:11:00,32.0,28.6,29.99,WNW,282,0.0,3.0,87,0.00,,CLR,0.00,VWS V13.01,2013-02-15 09:11:00,
2013-02-15 04:16:00,32.0,28.3,29.99,WNW,282,0.0,0.0,86,0.00,,CLR,0.00,VWS V13.01,2013-02-15 09:16:00,
2013-02-15 04:21:00,31.7,28.0,29.99,WNW,282,0.0,1.0,86,0.00,,CLR,0.00,VWS V13.01,2013-02-15 09:21:00,
2013-02-15 04:26:00,31.0,27.3,29.99,WNW,282,0.0,1.0,86,0.00,,CLR,0.00,VWS V13.01,2013-02-15 09:26:00,
2013-02-15 04:31:00,31.0,27.9,29.99,WNW,282,0.0,0.0,88,0.00,,CLR,0.00,VWS V13.01,2013-02-15 09:31:00,
2013-02-15 04:36:00,31.1,28.0,30.00,WNW,282,0.0,0.0,88,0.00,,CLR,0.00,VWS V13.01,2013-02-15 09:36:00,
2013-02-15 04:41:00,31.4,28.3,30.00,West,280,2.0,3.0,88,0.00,,CLR,0.00,VWS V13.01,2013-02-15 09:41:00,
2013-02-15 04:47:00,32.2,29.0,29.99,WSW,252,3.0,3.0,88,0.00,,CLR,0.00,VWS V13.01,2013-02-15 09:47:00,
2013-02-15 04:52:00,33.3,29.9,29.99,West,275,2.0,3.0,87,0.00,,CLR,0.00,VWS V13.01,2013-02-15 09:52:00,
2013-02-15 04:57:00,32.5,28.8,30.00,West,267,1.0,2.0,86,0.00,,CLR,0.00,VWS V13.01,2013-02-15 09:57:00,
2013-02-15 05:02:00,32.8,29.1,30.00,West,266,2.0,3.0,86,0.00,,CLR,0.00,VWS V13.01,2013-02-15 10:02:00,
2013-02-15 05:07:00,32.8,29.1,30.00,WSW,250,1.0,3.0,86,0.00,,CLR,0.00,VWS V13.01,2013-02-15 10:07:00,
2013-02-15 05:12:00,32.8,29.1,30.00,WSW,250,1.0,1.0,86,0.00,,CLR,0.00,VWS V13.01,2013-02-15 10:12:00,
2013-02-15 05:17:00,33.5,29.8,30.00,WSW,250,0.0,2.0,86,0.00,,CLR,0.00,VWS V13.01,2013-02-15 10:17:00,
2013-02-15 05:23:00,33.9,29.9,30.00,SW,226,1.0,3.0,85,0.00,,CLR,0.00,VWS V13.01,2013-02-15 10:23:00,
2013-02-15 05:28:00,34.1,29.8,30.00,SW,225,3.0,3.0,84,0.00,,CLR,0.00,VWS V13.01,2013-02-15 10:28:00,
2013-02-15 05:33:00,34.4,30.4,30.00,SW,222,0.0,3.0,85,0.00,,CLR,0.00,VWS V13.01,2013-02-15 10:33:00,
2013-02-15 05:38:00,34.5,30.2,30.00,SW,222,0.0,3.0,84,0.00,,CLR,0.00,VWS V13.01,2013-02-15 10:38:00,
2013-02-15 05:43:00,34.2,29.6,30.00,SW,222,0.0,0.0,83,0.00,,CLR,0.00,VWS V13.01,2013-02-15 10:43:00,
2013-02-15 05:48:00,33.1,28.5,30.00,SW,222,1.0,1.0,83,0.00,,CLR,0.00,VWS V13.01,2013-02-15 10:48:00,
2013-02-15 05:54:00,32.4,28.1,30.00,SW,232,1.0,2.0,84,0.00,,CLR,0.00,VWS V13.01,2013-02-15 10:54:00,
2013-02-15 05:59:00,32.2,28.2,30.01,SW,232,0.0,0.0,85,0.00,,CLR,0.00,VWS V13.01,2013-02-15 10:59:00,
2013-02-15 06:04:00,32.0,28.3,30.01,SW,232,0.0,0.0,86,0.00,,CLR,0.00,VWS V13.01,2013-02-15 11:04:00,
2013-02-15 06:09:00,31.9,28.5,30.01,SW,232,0.0,2.0,87,0.00,,CLR,0.00,VWS V13.01,2013-02-15 11:09:00,
2013-02-15 06:14:00,32.0,28.3,30.01,SW,232,0.0,0.0,86,0.00,,CLR,0.00,VWS V13.01,2013-02-15 11:14:00,
2013-02-15 06:19:00,31.9,28.5,30.01,SW,232,0.0,1.0,87,0.00,,CLR,0.00,VWS V13.01,2013-02-15 11:19:00,
2013-02-15 06:24:00,31.7,28.3,30.01,SW,232,0.0,1.0,87,0.00,,CLR,0.00,VWS V13.01,2013-02-15 11:24:00,
2013-02-15 06:30:00,31.6,28.2,30.02,SW,232,0.0,3.0,87,0.00,,CLR,0.00,VWS V13.01,2013-02-15 11:30:00,
2013-02-15 06:35:00,31.3,28.2,30.02,SW,232,1.0,3.0,88,0.00,,CLR,0.00,VWS V13.01,2013-02-15 11:35:00,
2013-02-15 06:40:00,31.3,28.2,30.02,SW,232,1.0,3.0,88,0.00,,CLR,0.00,VWS V13.01,2013-02-15 11:40:00,
2013-02-15 06:45:00,31.4,28.5,30.02,SW,232,0.0,1.0,89,0.00,,CLR,0.00,VWS V13.01,2013-02-15 11:45:00,
2013-02-15 06:50:00,31.6,28.7,30.03,SW,232,2.0,2.0,89,0.00,,CLR,0.00,VWS V13.01,2013-02-15 11:50:00,
2013-02-15 06:55:00,31.9,29.0,30.02,WSW,237,0.0,3.0,89,0.00,,CLR,0.00,VWS V13.01,2013-02-15 11:55:00,
2013-02-15 07:00:00,32.2,29.3,30.02,WSW,237,0.0,1.0,89,0.00,,CLR,0.00,VWS V13.01,2013-02-15 12:00:00,
2013-02-15 07:05:00,32.4,29.2,30.03,WSW,237,0.0,1.0,88,0.00,,CLR,0.00,VWS V13.01,2013-02-15 12:05:00,
2013-02-15 07:11:00,32.3,29.1,30.02,WSW,237,0.0,1.0,88,0.00,,CLR,0.00,VWS V13.01,2013-02-15 12:11:00,
2013-02-15 07:16:00,32.0,28.9,30.03,WSW,237,0.0,0.0,88,0.00,,CLR,0.00,VWS V13.01,2013-02-15 12:16:00,
2013-02-15 07:21:00,31.2,27.8,30.03,SW,230,3.0,3.0,87,0.00,,CLR,0.00,VWS V13.01,2013-02-15 12:21:00,
2013-02-15 07:26:00,32.3,29.1,30.03,SW,228,0.0,4.0,88,0.00,,CLR,0.00,VWS V13.01,2013-02-15 12:26:00,
2013-02-15 07:31:00,32.3,29.1,30.03,SW,228,0.0,0.0,88,0.00,,CLR,0.00,VWS V13.01,2013-02-15 12:31:00,
2013-02-15 07:36:00,31.9,28.5,30.03,SW,228,0.0,0.0,87,0.00,,CLR,0.00,VWS V13.01,2013-02-15 12:36:00,
2013-02-15 07:41:00,31.4,28.3,30.04,SW,228,0.0,0.0,88,0.00,,CLR,0.00,VWS V13.01,2013-02-15 12:41:00,
2013-02-15 07:47:00,31.4,28.5,30.04,SW,228,0.0,2.0,89,0.00,,CLR,0.00,VWS V13.01,2013-02-15 12:47:00,
2013-02-15 07:52:00,31.5,28.6,30.04,SW,228,0.0,2.0,89,0.00,,CLR,0.00,VWS V13.01,2013-02-15 12:52:00,
2013-02-15 07:57:00,31.6,28.7,30.04,SW,228,0.0,0.0,89,0.00,,CLR,0.00,VWS V13.01,2013-02-15 12:57:00,
2013-02-15 08:02:00,31.9,29.0,30.05,SW,228,0.0,0.0,89,0.00,,CLR,0.00,VWS V13.01,2013-02-15 13:02:00,
2013-02-15 08:07:00,32.4,29.5,30.05,SW,228,0.0,1.0,89,0.00,,CLR,0.00,VWS V13.01,2013-02-15 13:07:00,
2013-02-15 08:12:00,32.8,29.6,30.05,SW,228,2.0,2.0,88,0.00,,CLR,0.00,VWS V13.01,2013-02-15 13:12:00,
2013-02-15 08:17:00,33.4,30.2,30.05,SW,235,1.0,3.0,88,0.00,,CLR,0.00,VWS V13.01,2013-02-15 13:17:00,
2013-02-15 08:23:00,34.0,30.5,30.05,SW,235,0.0,3.0,87,0.00,,CLR,0.00,VWS V13.01,2013-02-15 13:23:00,
2013-02-15 08:28:00,34.7,31.0,30.05,SW,235,0.0,3.0,86,0.00,,CLR,0.00,VWS V13.01,2013-02-15 13:28:00,
2013-02-15 08:33:00,35.5,31.5,30.05,SW,222,3.0,4.0,85,0.00,,CLR,0.00,VWS V13.01,2013-02-15 13:33:00,
2013-02-15 08:38:00,36.0,31.4,30.05,SW,229,0.0,4.0,83,0.00,,CLR,0.00,VWS V13.01,2013-02-15 13:38:00,
2013-02-15 08:43:00,36.4,31.7,30.06,SW,229,1.0,2.0,83,0.00,,CLR,0.00,VWS V13.01,2013-02-15 13:43:00,
2013-02-15 08:48:00,37.1,32.1,30.05,SW,229,1.0,2.0,82,0.00,,CLR,0.00,VWS V13.01,2013-02-15 13:48:00,
2013-02-15 08:53:00,37.9,32.6,30.05,SW,229,0.0,2.0,81,0.00,,CLR,0.00,VWS V13.01,2013-02-15 13:53:00,
2013-02-15 08:58:00,38.7,33.1,30.06,SW,229,0.0,1.0,80,0.00,,CLR,0.00,VWS V13.01,2013-02-15 13:58:00,
2013-02-15 09:04:00,39.5,33.8,30.06,SW,231,0.0,2.0,80,0.00,,CLR,0.00,VWS V13.01,2013-02-15 14:04:00,
2013-02-15 09:09:00,40.1,34.1,30.05,SW,231,0.0,2.0,79,0.00,,CLR,0.00,VWS V13.01,2013-02-15 14:09:00,
2013-02-15 09:14:00,41.0,35.3,30.05,SW,231,0.0,0.0,80,0.00,,CLR,0.00,VWS V13.01,2013-02-15 14:14:00,
2013-02-15 09:19:00,40.7,34.1,30.06,SW,231,0.0,1.0,77,0.00,,CLR,0.00,VWS V13.01,2013-02-15 14:19:00,
2013-02-15 09:24:00,39.6,33.3,30.06,SW,231,0.0,1.0,78,0.00,,CLR,0.00,VWS V13.01,2013-02-15 14:24:00,
2013-02-15 09:29:00,40.0,35.0,30.06,SW,231,0.0,0.0,82,0.00,,CLR,0.00,VWS V13.01,2013-02-15 14:29:00,
2013-02-15 09:34:00,40.6,35.2,30.06,WSW,247,1.0,2.0,81,0.00,,CLR,0.00,VWS V13.01,2013-02-15 14:34:00,
2013-02-15 09:40:00,40.6,34.3,30.06,WSW,247,0.0,2.0,78,0.00,,CLR,0.00,VWS V13.01,2013-02-15 14:40:00,
2013-02-15 09:45:00,41.2,35.2,30.05,WSW,247,0.0,0.0,79,0.00,,CLR,0.00,VWS V13.01,2013-02-15 14:45:00,
2013-02-15 09:50:00,42.3,36.6,30.05,WSW,247,0.0,0.0,80,0.00,,CLR,0.00,VWS V13.01,2013-02-15 14:50:00,
2013-02-15 09:55:00,43.2,35.8,30.05,WSW,247,1.0,1.0,75,0.00,,CLR,0.00,VWS V13.01,2013-02-15 14:55:00,
2013-02-15 10:00:00,43.9,35.8,30.04,WSW,253,1.0,2.0,73,0.00,,CLR,0.00,VWS V13.01,2013-02-15 15:00:00,
2013-02-15 10:06:00,44.3,35.5,30.04,WSW,253,0.0,2.0,71,0.00,,CLR,0.00,VWS V13.01,2013-02-15 15:06:00,
2013-02-15 10:11:00,45.0,35.8,30.04,WSW,253,0.0,2.0,70,0.00,,CLR,0.00,VWS V13.01,2013-02-15 15:11:00,
2013-02-15 10:16:00,45.5,36.7,30.04,WSW,253,0.0,0.0,71,0.00,,CLR,0.00,VWS V13.01,2013-02-15 15:16:00,
2013-02-15 10:21:00,46.3,37.4,30.04,WSW,253,1.0,2.0,71,0.00,,CLR,0.00,VWS V13.01,2013-02-15 15:21:00,
2013-02-15 10:26:00,46.7,37.1,30.04,WSW,241,0.0,3.0,69,0.00,,CLR,0.00,VWS V13.01,2013-02-15 15:26:00,
2013-02-15 10:31:00,47.2,36.8,30.04,SW,232,0.0,2.0,67,0.00,,CLR,0.00,VWS V13.01,2013-02-15 15:31:00,
2013-02-15 10:37:00,47.9,37.1,30.03,West,271,2.0,3.0,66,0.00,,CLR,0.00,VWS V13.01,2013-02-15 15:37:00,
2013-02-15 10:42:00,48.5,37.7,30.03,West,270,2.0,3.0,66,0.00,,CLR,0.00,VWS V13.01,2013-02-15 15:42:00,
2013-02-15 10:47:00,48.6,36.6,30.03,WSW,253,4.0,6.0,63,0.00,,CLR,0.00,VWS V13.01,2013-02-15 15:47:00,
2013-02-15 10:52:00,48.4,36.4,30.03,SW,226,5.0,7.0,63,0.00,,CLR,0.00,VWS V13.01,2013-02-15 15:52:00,
2013-02-15 10:57:00,48.6,35.8,30.03,WSW,237,4.0,6.0,61,0.00,,CLR,0.00,VWS V13.01,2013-02-15 15:57:00,
2013-02-15 11:02:00,48.7,35.5,30.02,WSW,256,4.0,7.0,60,0.00,,CLR,0.00,VWS V13.01,2013-02-15 16:02:00,
2013-02-15 11:07:00,49.0,35.7,30.02,West,274,2.0,7.0,60,0.00,,CLR,0.00,VWS V13.01,2013-02-15 16:07:00,
2013-02-15 11:13:00,49.6,36.7,30.01,WSW,246,4.0,5.0,61,0.00,,CLR,0.00,VWS V13.01,2013-02-15 16:13:00,
2013-02-15 11:18:00,50.1,36.8,30.01,SW,228,5.0,7.0,60,0.00,,CLR,0.00,VWS V13.01,2013-02-15 16:18:00,
2013-02-15 11:23:00,50.7,36.5,30.01,West,264,4.0,7.0,58,0.00,,CLR,0.00,VWS V13.01,2013-02-15 16:23:00,
2013-02-15 11:28:00,50.5,35.8,30.01,West,278,2.0,6.0,57,0.00,,CLR,0.00,VWS V13.01,2013-02-15 16:28:00,
2013-02-15 11:33:00,50.6,36.4,30.01,WNW,284,6.0,11.0,58,0.00,,CLR,0.00,VWS V13.01,2013-02-15 16:33:00,
2013-02-15 11:38:00,50.4,35.8,30.01,SW,226,4.0,11.0,57,0.00,,CLR,0.00,VWS V13.01,2013-02-15 16:38:00,
2013-02-15 11:43:00,50.1,35.9,30.00,WSW,244,2.0,5.0,58,0.00,,CLR,0.00,VWS V13.01,2013-02-15 16:43:00,
2013-02-15 11:48:00,49.6,35.0,30.00,West,274,3.0,7.0,57,0.00,,CLR,0.00,VWS V13.01,2013-02-15 16:48:00,
2013-02-15 11:53:00,49.6,35.0,30.00,West,262,0.0,7.0,57,0.00,,CLR,0.00,VWS V13.01,2013-02-15 16:53:00,
2013-02-15 11:59:00,50.2,36.0,30.00,NW,320,1.0,4.0,58,0.00,,CLR,0.00,VWS V13.01,2013-02-15 16:59:00,
2013-02-15 12:04:00,50.6,35.9,30.00,SW,226,3.0,5.0,57,0.00,,CLR,0.00,VWS V13.01,2013-02-15 17:04:00,
2013-02-15 12:09:00,51.3,36.2,30.00,SW,220,4.0,5.0,56,0.00,,CLR,0.00,VWS V13.01,2013-02-15 17:09:00,
2013-02-15 12:14:00,51.5,35.9,29.99,West,273,3.0,5.0,55,0.00,,CLR,0.00,VWS V13.01,2013-02-15 17:14:00,
2013-02-15 12:19:00,51.4,36.2,29.99,West,265,3.0,5.0,56,0.00,,CLR,0.00,VWS V13.01,2013-02-15 17:19:00,
2013-02-15 12:24:00,51.1,35.5,29.99,WNW,293,1.0,7.0,55,0.00,,CLR,0.00,VWS V13.01,2013-02-15 17:24:00,
2013-02-15 12:30:00,51.3,35.7,29.98,SSE,161,4.0,11.0,55,0.00,,CLR,0.00,VWS V13.01,2013-02-15 17:30:00,
2013-02-15 12:35:00,51.8,36.2,29.98,West,265,3.0,11.0,55,0.00,,CLR,0.00,VWS V13.01,2013-02-15 17:35:00,
2013-02-15 12:40:00,51.6,36.0,29.98,NNE,16,6.0,11.0,55,0.00,,CLR,0.00,VWS V13.01,2013-02-15 17:40:00,
2013-02-15 12:45:00,51.0,35.9,29.98,NNE,26,2.0,6.0,56,0.00,,CLR,0.00,VWS V13.01,2013-02-15 17:45:00,
2013-02-15 12:50:00,50.7,35.6,29.98,North,356,1.0,6.0,56,0.00,,CLR,0.00,VWS V13.01,2013-02-15 17:50:00,
2013-02-15 12:55:00,50.7,35.1,29.98,NNW,330,3.0,6.0,55,0.00,,CLR,0.00,VWS V13.01,2013-02-15 17:55:00,
2013-02-15 13:00:00,50.6,35.5,29.97,NNW,339,3.0,3.0,56,0.00,,CLR,0.00,VWS V13.01,2013-02-15 18:00:00,
2013-02-15 13:06:00,50.5,35.4,29.97,NNW,339,0.0,4.0,56,0.00,,CLR,0.00,VWS V13.01,2013-02-15 18:06:00,
2013-02-15 13:11:00,50.6,35.5,29.97,North,357,7.0,9.0,56,0.00,,CLR,0.00,VWS V13.01,2013-02-15 18:11:00,
2013-02-15 13:16:00,50.5,35.4,29.97,North,8,6.0,7.0,56,0.00,,CLR,0.00,VWS V13.01,2013-02-15 18:16:00,
2013-02-15 13:21:00,50.4,35.3,29.97,North,7,5.0,9.0,56,0.00,,CLR,0.00,VWS V13.01,2013-02-15 18:21:00,
2013-02-15 13:26:00,50.1,35.5,29.97,NW,314,0.0,10.0,57,0.00,,CLR,0.00,VWS V13.01,2013-02-15 18:26:00,
2013-02-15 13:31:00,49.9,35.7,29.97,WNW,297,6.0,7.0,58,0.00,,CLR,0.00,VWS V13.01,2013-02-15 18:31:00,
2013-02-15 13:37:00,49.6,35.5,29.97,North,349,7.0,10.0,58,0.00,,CLR,0.00,VWS V13.01,2013-02-15 18:37:00,
2013-02-15 13:42:00,49.6,35.9,29.97,North,353,4.0,4.0,59,0.00,,CLR,0.00,VWS V13.01,2013-02-15 18:42:00,
2013-02-15 13:47:00,49.6,35.9,29.97,North,357,3.0,7.0,59,0.00,,CLR,0.00,VWS V13.01,2013-02-15 18:47:00,
2013-02-15 13:52:00,49.5,35.8,29.97,NNW,334,3.0,7.0,59,0.00,,CLR,0.00,VWS V13.01,2013-02-15 18:52:00,
2013-02-15 13:57:00,49.5,36.2,29.97,NW,321,2.0,3.0,60,0.00,,CLR,0.00,VWS V13.01,2013-02-15 18:57:00,
2013-02-15 14:03:00,49.3,36.0,29.97,North,349,5.0,10.0,60,0.00,,CLR,0.00,VWS V13.01,2013-02-15 19:03:00,
2013-02-15 14:08:00,49.2,35.9,29.97,NNW,336,1.0,11.0,60,0.00,,CLR,0.00,VWS V13.01,2013-02-15 19:08:00,
2013-02-15 14:13:00,48.9,35.2,29.97,North,355,6.0,7.0,59,0.00,,CLR,0.00,VWS V13.01,2013-02-15 19:13:00,
2013-02-15 14:18:00,48.8,35.1,29.97,NNW,345,4.0,12.0,59,0.00,,CLR,0.00,VWS V13.01,2013-02-15 19:18:00,
2013-02-15 14:23:00,48.8,35.5,29.97,WNW,300,4.0,12.0,60,0.00,,CLR,0.00,VWS V13.01,2013-02-15 19:23:00,
2013-02-15 14:29:00,48.7,35.9,29.97,WNW,287,4.0,4.0,61,0.00,,CLR,0.00,VWS V13.01,2013-02-15 19:29:00,
2013-02-15 14:34:00,48.3,35.9,29.97,West,274,0.0,12.0,62,0.00,,CLR,0.00,VWS V13.01,2013-02-15 19:34:00,
2013-02-15 14:39:00,48.2,35.8,29.97,WNW,289,5.0,12.0,62,0.00,,CLR,0.00,VWS V13.01,2013-02-15 19:39:00,
2013-02-15 14:44:00,48.0,36.0,29.97,NW,318,5.0,10.0,63,0.00,,CLR,0.00,VWS V13.01,2013-02-15 19:44:00,
2013-02-15 14:49:00,47.8,35.4,29.97,North,11,8.0,10.0,62,0.00,,CLR,0.00,VWS V13.01,2013-02-15 19:49:00,
2013-02-15 14:54:00,47.6,35.2,29.98,NW,319,6.0,11.0,62,0.00,,CLR,0.00,VWS V13.01,2013-02-15 19:54:00,
2013-02-15 14:59:00,47.3,34.1,29.98,NW,313,1.0,13.0,60,0.00,,CLR,0.00,VWS V13.01,2013-02-15 19:59:00,
2013-02-15 15:04:00,46.7,33.6,29.98,NW,310,12.0,22.0,60,0.00,,CLR,0.00,VWS V13.01,2013-02-15 20:04:00,
2013-02-15 15:10:00,45.9,33.6,29.99,North,7,12.0,22.0,62,0.00,,CLR,0.00,VWS V13.01,2013-02-15 20:10:00,
2013-02-15 15:15:00,45.6,32.5,29.99,NNW,340,11.0,20.0,60,0.00,,CLR,0.00,VWS V13.01,2013-02-15 20:15:00,
2013-02-15 15:20:00,45.2,33.0,29.99,NNW,334,15.0,22.0,62,0.00,,CLR,0.00,VWS V13.01,2013-02-15 20:20:00,
2013-02-15 15:25:00,44.2,33.6,29.99,North,355,11.0,22.0,66,0.00,,CLR,0.00,VWS V13.01,2013-02-15 20:25:00,
2013-02-15 15:30:00,43.4,33.9,30.00,NW,311,9.0,18.0,69,0.00,,CLR,0.00,VWS V13.01,2013-02-15 20:30:00,
2013-02-15 15:35:00,42.9,33.8,30.00,NW,304,8.0,18.0,70,0.00,,CLR,0.00,VWS V13.01,2013-02-15 20:35:00,
2013-02-15 15:40:00,42.7,34.0,30.00,North,358,10.0,18.0,71,0.00,,CLR,0.00,VWS V13.01,2013-02-15 20:40:00,
2013-02-15 15:46:00,42.5,33.8,30.00,NNW,332,6.0,13.0,71,0.00,,CLR,0.00,VWS V13.01,2013-02-15 20:46:00,
2013-02-15 15:51:00,42.4,34.0,30.00,NNE,28,3.0,16.0,72,0.00,,CLR,0.00,VWS V13.01,2013-02-15 20:51:00,
2013-02-15 15:56:00,41.7,34.7,30.01,NW,309,6.0,16.0,76,0.00,,CLR,0.00,VWS V13.01,2013-02-15 20:56:00,
2013-02-15 16:01:00,41.0,34.7,30.01,NW,305,13.0,14.0,78,0.00,,CLR,0.00,VWS V13.01,2013-02-15 21:01:00,
2013-02-15 16:06:00,40.5,34.5,30.00,NW,310,6.0,15.0,79,0.00,,CLR,0.00,VWS V13.01,2013-02-15 21:06:00,
2013-02-15 16:11:00,40.2,34.5,30.01,West,280,6.0,15.0,80,0.00,,CLR,0.00,VWS V13.01,2013-02-15 21:11:00,
2013-02-15 16:16:00,40.1,34.8,30.01,WNW,293,5.0,9.0,81,0.00,,CLR,0.00,VWS V13.01,2013-02-15 21:16:00,
2013-02-15 16:21:00,40.0,34.7,30.01,WNW,289,4.0,9.0,81,0.00,,CLR,0.00,VWS V13.01,2013-02-15 21:21:00,
2013-02-15 16:26:00,40.0,34.7,30.00,NW,316,5.0,10.0,81,0.00,,CLR,0.00,VWS V13.01,2013-02-15 21:26:00,
2013-02-15 16:32:00,39.9,34.5,30.00,West,271,4.0,10.0,81,0.00,,CLR,0.00,VWS V13.01,2013-02-15 21:32:00,
2013-02-15 16:37:00,39.9,34.5,30.00,WNW,299,3.0,10.0,81,0.00,,CLR,0.00,VWS V13.01,2013-02-15 21:37:00,
2013-02-15 16:42:00,39.9,34.5,30.00,WNW,293,4.0,5.0,81,0.00,,CLR,0.00,VWS V13.01,2013-02-15 21:42:00,
2013-02-15 16:47:00,39.8,34.5,30.00,NW,314,4.0,9.0,81,0.00,,CLR,0.00,VWS V13.01,2013-02-15 21:47:00,
2013-02-15 16:52:00,39.8,34.5,30.00,NNW,339,14.0,14.0,81,0.00,,CLR,0.00,VWS V13.01,2013-02-15 21:52:00,
2013-02-15 16:57:00,39.8,34.5,30.00,NW,311,3.0,7.0,81,0.00,,CLR,0.00,VWS V13.01,2013-02-15 21:57:00,
2013-02-15 17:02:00,39.8,34.1,30.00,NNW,343,5.0,9.0,80,0.00,,CLR,0.00,VWS V13.01,2013-02-15 22:02:00,
2013-02-15 17:07:00,39.7,34.4,30.00,WNW,291,6.0,11.0,81,0.00,,CLR,0.00,VWS V13.01,2013-02-15 22:07:00,
2013-02-15 17:12:00,39.6,34.3,30.00,NW,325,4.0,5.0,81,0.00,,CLR,0.00,VWS V13.01,2013-02-15 22:12:00,
2013-02-15 17:17:00,39.5,34.2,30.00,NNW,337,5.0,7.0,81,0.00,,CLR,0.00,VWS V13.01,2013-02-15 22:17:00,
2013-02-15 17:22:00,39.5,34.2,30.00,WNW,289,9.0,11.0,81,0.00,,CLR,0.00,VWS V13.01,2013-02-15 22:22:00,
2013-02-15 17:27:00,39.4,34.1,30.01,NW,316,4.0,7.0,81,0.00,,CLR,0.00,VWS V13.01,2013-02-15 22:27:00,
2013-02-15 17:32:00,39.4,34.1,30.02,WNW,303,8.0,9.0,81,0.00,,CLR,0.00,VWS V13.01,2013-02-15 22:32:00,
2013-02-15 17:38:00,39.1,34.1,30.02,WNW,301,5.0,13.0,82,0.00,,CLR,0.00,VWS V13.01,2013-02-15 22:38:00,
2013-02-15 17:43:00,38.7,34.3,30.02,NNW,334,10.0,10.0,84,0.00,,CLR,0.00,VWS V13.01,2013-02-15 22:43:00,
2013-02-15 17:48:00,38.3,34.2,30.02,NW,314,5.0,14.0,85,0.00,,CLR,0.00,VWS V13.01,2013-02-15 22:48:00,
2013-02-15 17:53:00,37.7,33.9,30.02,NW,307,7.0,16.0,86,0.01,,CLR,0.01,VWS V13.01,2013-02-15 22:53:00,
2013-02-15 17:58:00,37.3,34.1,30.02,NW,314,5.0,7.0,88,0.01,,CLR,0.01,VWS V13.01,2013-02-15 22:58:00,
2013-02-15 18:03:00,37.0,34.1,30.02,NW,317,4.0,10.0,89,0.02,,CLR,0.02,VWS V13.01,2013-02-15 23:03:00,
2013-02-15 18:08:00,36.8,33.9,30.02,NW,310,5.0,10.0,89,0.02,,CLR,0.02,VWS V13.01,2013-02-15 23:08:00,
2013-02-15 18:13:00,36.7,34.0,30.02,NW,305,6.0,7.0,90,0.02,,CLR,0.02,VWS V13.01,2013-02-15 23:13:00,
2013-02-15 18:19:00,36.7,34.0,30.02,West,269,4.0,9.0,90,0.02,,CLR,0.02,VWS V13.01,2013-02-15 23:19:00,
2013-02-15 18:24:00,36.5,34.1,30.02,West,278,3.0,9.0,91,0.02,,CLR,0.02,VWS V13.01,2013-02-15 23:24:00,
2013-02-15 18:29:00,36.5,34.1,30.02,West,268,2.0,7.0,91,0.02,,CLR,0.02,VWS V13.01,2013-02-15 23:29:00,
2013-02-15 18:35:00,36.4,34.0,30.02,West,276,2.0,7.0,91,0.02,,CLR,0.02,VWS V13.01,2013-02-15 23:35:00,
2013-02-15 18:40:00,36.4,34.3,30.03,WNW,287,4.0,7.0,92,0.02,,CLR,0.02,VWS V13.01,2013-02-15 23:40:00,
2013-02-15 18:45:00,36.3,34.2,30.03,WNW,287,2.0,4.0,92,0.02,,CLR,0.02,VWS V13.01,2013-02-15 23:45:00,
2013-02-15 18:50:00,36.2,34.1,30.03,NW,312,4.0,10.0,92,0.02,,CLR,0.02,VWS V13.01,2013-02-15 23:50:00,
2013-02-15 18:55:00,36.2,34.4,30.03,West,274,6.0,10.0,93,0.02,,CLR,0.02,VWS V13.01,2013-02-15 23:55:00,
2013-02-15 19:00:00,36.2,34.4,30.03,West,275,4.0,6.0,93,0.01,,CLR,0.02,VWS V13.01,2013-02-16 00:00:00,
2013-02-15 19:05:00,36.2,34.4,30.03,West,271,3.0,7.0,93,0.01,,CLR,0.02,VWS V13.01,2013-02-16 00:05:00,
2013-02-15 19:11:00,36.2,34.4,30.04,West,274,6.0,7.0,93,0.01,,CLR,0.02,VWS V13.01,2013-02-16 00:11:00,
2013-02-15 19:16:00,36.3,34.5,30.04,WNW,286,5.0,10.0,93,0.00,,CLR,0.02,VWS V13.01,2013-02-16 00:16:00,
2013-02-15 19:21:00,36.3,34.5,30.04,WNW,283,7.0,10.0,93,0.00,,CLR,0.02,VWS V13.01,2013-02-16 00:21:00,
2013-02-15 19:26:00,36.3,34.5,30.04,WSW,249,4.0,10.0,93,0.01,,CLR,0.03,VWS V13.01,2013-02-16 00:26:00,
2013-02-15 19:31:00,36.4,34.6,30.03,WSW,241,4.0,6.0,93,0.01,,CLR,0.03,VWS V13.01,2013-02-16 00:31:00,
2013-02-15 19:36:00,36.4,34.6,30.03,West,259,4.0,6.0,93,0.01,,CLR,0.03,VWS V13.01,2013-02-16 00:36:00,
2013-02-15 19:41:00,36.5,34.7,30.03,West,268,1.0,6.0,93,0.01,,CLR,0.03,VWS V13.01,2013-02-16 00:41:00,
2013-02-15 19:46:00,36.5,34.7,30.03,SW,236,2.0,3.0,93,0.01,,CLR,0.03,VWS V13.01,2013-02-16 00:46:00,
2013-02-15 19:52:00,36.5,34.7,30.03,WSW,253,1.0,3.0,93,0.01,,CLR,0.03,VWS V13.01,2013-02-16 00:52:00,
2013-02-15 19:57:00,36.5,34.7,30.03,WSW,253,0.0,0.0,93,0.01,,CLR,0.03,VWS V13.01,2013-02-16 00:57:00,
2013-02-15 20:02:00,36.5,34.7,30.02,West,270,0.0,2.0,93,0.01,,CLR,0.03,VWS V13.01,2013-02-16 01:02:00,
2013-02-15 20:07:00,36.5,34.7,30.03,West,262,1.0,3.0,93,0.01,,CLR,0.03,VWS V13.01,2013-02-16 01:07:00,
2013-02-15 20:12:00,36.5,34.7,30.03,West,261,1.0,1.0,93,0.01,,CLR,0.03,VWS V13.01,2013-02-16 01:12:00,
2013-02-15 20:17:00,36.4,34.6,30.03,West,261,0.0,2.0,93,0.01,,CLR,0.03,VWS V13.01,2013-02-16 01:17:00,
2013-02-15 20:22:00,36.5,34.7,30.03,WSW,246,2.0,4.0,93,0.01,,CLR,0.03,VWS V13.01,2013-02-16 01:22:00,
2013-02-15 20:27:00,36.4,34.6,30.03,WNW,282,2.0,3.0,93,0.00,,CLR,0.03,VWS V13.01,2013-02-16 01:27:00,
2013-02-15 20:33:00,36.4,34.6,30.03,WNW,287,2.0,4.0,93,0.00,,CLR,0.03,VWS V13.01,2013-02-16 01:33:00,
2013-02-15 20:38:00,36.3,34.5,30.03,West,266,0.0,4.0,93,0.00,,CLR,0.03,VWS V13.01,2013-02-16 01:38:00,
2013-02-15 20:43:00,36.2,34.4,30.03,West,261,0.0,2.0,93,0.00,,CLR,0.03,VWS V13.01,2013-02-16 01:43:00,
2013-02-15 20:48:00,36.2,34.6,30.03,West,267,1.0,2.0,94,0.00,,CLR,0.03,VWS V13.01,2013-02-16 01:48:00,
2013-02-15 20:53:00,36.2,34.6,30.03,WSW,257,3.0,3.0,94,0.00,,CLR,0.03,VWS V13.01,2013-02-16 01:53:00,
2013-02-15 20:58:00,36.2,34.6,30.03,West,270,1.0,3.0,94,0.00,,CLR,0.03,VWS V13.01,2013-02-16 01:58:00,
2013-02-15 21:04:00,36.2,34.6,30.03,West,275,0.0,4.0,94,0.00,,CLR,0.03,VWS V13.01,2013-02-16 02:04:00,
2013-02-15 21:09:00,36.1,34.5,30.03,WNW,302,1.0,4.0,94,0.00,,CLR,0.03,VWS V13.01,2013-02-16 02:09:00,
2013-02-15 21:14:00,36.1,34.5,30.03,West,277,1.0,4.0,94,0.00,,CLR,0.03,VWS V13.01,2013-02-16 02:14:00,
2013-02-15 21:19:00,36.1,34.5,30.03,West,268,3.0,4.0,94,0.00,,CLR,0.03,VWS V13.01,2013-02-16 02:19:00,
2013-02-15 21:24:00,36.1,34.5,30.03,West,272,3.0,5.0,94,0.00,,CLR,0.03,VWS V13.01,2013-02-16 02:24:00,
2013-02-15 21:29:00,36.2,34.6,30.03,WNW,296,1.0,6.0,94,0.00,,CLR,0.03,VWS V13.01,2013-02-16 02:29:00,
2013-02-15 21:34:00,36.2,34.4,30.03,WNW,284,4.0,6.0,93,0.00,,CLR,0.03,VWS V13.01,2013-02-16 02:34:00,
2013-02-15 21:39:00,36.3,34.5,30.03,WNW,292,2.0,6.0,93,0.00,,CLR,0.03,VWS V13.01,2013-02-16 02:39:00,
2013-02-15 21:44:00,36.3,34.5,30.03,WNW,289,1.0,4.0,93,0.00,,CLR,0.03,VWS V13.01,2013-02-16 02:44:00,
2013-02-15 21:49:00,36.4,34.3,30.03,WNW,299,3.0,8.0,92,0.00,,CLR,0.03,VWS V13.01,2013-02-16 02:49:00,
2013-02-15 21:54:00,36.6,34.2,30.03,NW,326,4.0,8.0,91,0.00,,CLR,0.03,VWS V13.01,2013-02-16 02:54:00,
2013-02-15 22:00:00,36.7,34.0,30.02,WNW,297,3.0,6.0,90,0.00,,CLR,0.03,VWS V13.01,2013-02-16 03:00:00,
2013-02-15 22:05:00,36.6,33.7,30.03,WNW,300,5.0,6.0,89,0.00,,CLR,0.03,VWS V13.01,2013-02-16 03:05:00,
2013-02-15 22:10:00,36.6,33.7,30.03,WNW,289,3.0,6.0,89,0.00,,CLR,0.03,VWS V13.01,2013-02-16 03:10:00,
2013-02-15 22:15:00,36.5,33.6,30.03,WNW,292,3.0,5.0,89,0.00,,CLR,0.03,VWS V13.01,2013-02-16 03:15:00,
2013-02-15 22:20:00,36.4,33.8,30.03,WNW,295,2.0,6.0,90,0.00,,CLR,0.03,VWS V13.01,2013-02-16 03:20:00,
2013-02-15 22:26:00,36.3,33.4,30.03,North,355,3.0,6.0,89,0.00,,CLR,0.03,VWS V13.01,2013-02-16 03:26:00,
2013-02-15 22:31:00,36.5,33.0,30.02,NW,324,4.0,7.0,87,0.00,,CLR,0.03,VWS V13.01,2013-02-16 03:31:00,
2013-02-15 22:36:00,36.7,32.6,30.02,NNW,327,5.0,7.0,85,0.00,,CLR,0.03,VWS V13.01,2013-02-16 03:36:00,
2013-02-15 22:41:00,36.9,32.5,30.02,NNW,345,4.0,7.0,84,0.00,,CLR,0.03,VWS V13.01,2013-02-16 03:41:00,
2013-02-15 22:46:00,36.9,32.2,30.03,NNW,327,2.0,6.0,83,0.00,,CLR,0.03,VWS V13.01,2013-02-16 03:46:00,
2013-02-15 22:51:00,36.9,32.2,30.02,NNW,336,1.0,6.0,83,0.00,,CLR,0.03,VWS V13.01,2013-02-16 03:51:00,
2013-02-15 22:56:00,37.0,32.0,30.02,NW,318,5.0,6.0,82,0.00,,CLR,0.03,VWS V13.01,2013-02-16 03:56:00,
2013-02-15 23:01:00,37.0,31.7,30.02,NW,322,3.0,5.0,81,0.00,,CLR,0.03,VWS V13.01,2013-02-16 04:01:00,
2013-02-15 23:06:00,37.0,31.7,30.02,NW,316,0.0,5.0,81,0.00,,CLR,0.03,VWS V13.01,2013-02-16 04:06:00,
2013-02-15 23:12:00,36.9,31.9,30.01,NNW,339,3.0,3.0,82,0.00,,CLR,0.03,VWS V13.01,2013-02-16 04:12:00,
2013-02-15 23:17:00,36.9,31.6,30.01,NW,318,2.0,4.0,81,0.00,,CLR,0.03,VWS V13.01,2013-02-16 04:17:00,
2013-02-15 23:22:00,37.0,31.7,30.01,NNW,332,2.0,4.0,81,0.00,,CLR,0.03,VWS V13.01,2013-02-16 04:22:00,
2013-02-15 23:27:00,36.9,31.9,30.01,NNW,332,0.0,0.0,82,0.00,,CLR,0.03,VWS V13.01,2013-02-16 04:27:00,
2013-02-15 23:32:00,36.5,31.8,30.01,NNW,332,2.0,3.0,83,0.00,,CLR,0.03,VWS V13.01,2013-02-16 04:32:00,
2013-02-15 23:37:00,36.5,31.5,30.01,NNW,336,4.0,4.0,82,0.00,,CLR,0.03,VWS V13.01,2013-02-16 04:37:00,
2013-02-15 23:43:00,36.4,31.7,30.01,NNW,327,0.0,3.0,83,0.00,,CLR,0.03,VWS V13.01,2013-02-16 04:43:00,
2013-02-15 23:48:00,36.1,31.7,30.01,NNW,327,2.0,3.0,84,0.00,,CLR,0.03,VWS V13.01,2013-02-16 04:48:00,
2013-02-15 23:53:00,35.8,31.7,30.01,NNW,327,0.0,3.0,85,0.00,,CLR,0.03,VWS V13.01,2013-02-16 04:53:00,
2013-02-15 23:58:00,35.5,31.7,30.01,NNW,327,0.0,0.0,86,0.00,,CLR,0.00,VWS V13.01,2013-02-16 04:58:00,